sensor_id;sensor_type;location;lat;lon;timestamp;P1;durP1;ratioP1;P2;durP2;ratioP2
14316;SDS011;7242;50.858;6.586;2022-12-18T00:02:41;20.50;;;13.87;;
14316;SDS011;7242;50.858;6.586;2022-12-18T00:05:49;20.57;;;13.87;;
14316;SDS011;7242;50.858;6.586;2022-12-18T00:08:50;22.33;;;15.17;;
14316;SDS011;7242;50.858;6.586;2022-12-18T00:11:52;24.23;;;15.20;;
14316;SDS011;7242;50.858;6.586;2022-12-18T00:14:53;22.13;;;14.90;;
14316;SDS011;7242;50.858;6.586;2022-12-18T00:17:54;22.20;;;13.57;;
14316;SDS011;7242;50.858;6.586;2022-12-18T00:20:58;20.67;;;13.23;;
14316;SDS011;7242;50.858;6.586;2022-12-18T00:23:59;21.27;;;13.47;;
14316;SDS011;7242;50.858;6.586;2022-12-18T00:27:00;19.37;;;12.70;;
14316;SDS011;7242;50.858;6.586;2022-12-18T00:30:02;21.60;;;13.40;;
14316;SDS011;7242;50.858;6.586;2022-12-18T00:33:03;21.57;;;12.60;;
14316;SDS011;7242;50.858;6.586;2022-12-18T00:36:05;22.10;;;13.33;;
14316;SDS011;7242;50.858;6.586;2022-12-18T00:39:07;21.43;;;13.60;;
14316;SDS011;7242;50.858;6.586;2022-12-18T00:42:08;22.07;;;13.80;;
14316;SDS011;7242;50.858;6.586;2022-12-18T00:45:30;20.53;;;12.90;;
14316;SDS011;7242;50.858;6.586;2022-12-18T00:48:31;19.03;;;12.80;;
14316;SDS011;7242;50.858;6.586;2022-12-18T00:51:32;20.23;;;12.77;;
14316;SDS011;7242;50.858;6.586;2022-12-18T00:54:34;18.57;;;11.97;;
14316;SDS011;7242;50.858;6.586;2022-12-18T00:57:35;18.73;;;12.43;;
14316;SDS011;7242;50.858;6.586;2022-12-18T01:00:37;22.93;;;13.37;;
14316;SDS011;7242;50.858;6.586;2022-12-18T01:03:38;17.87;;;12.13;;
14316;SDS011;7242;50.858;6.586;2022-12-18T01:06:40;18.13;;;12.00;;
14316;SDS011;7242;50.858;6.586;2022-12-18T01:09:41;21.07;;;12.83;;
14316;SDS011;7242;50.858;6.586;2022-12-18T01:12:42;21.17;;;13.40;;
14316;SDS011;7242;50.858;6.586;2022-12-18T01:15:48;19.47;;;12.70;;
14316;SDS011;7242;50.858;6.586;2022-12-18T01:18:52;20.77;;;13.20;;
14316;SDS011;7242;50.858;6.586;2022-12-18T01:21:54;18.10;;;12.47;;
14316;SDS011;7242;50.858;6.586;2022-12-18T01:24:55;20.43;;;13.00;;
14316;SDS011;7242;50.858;6.586;2022-12-18T01:27:57;19.83;;;12.80;;
14316;SDS011;7242;50.858;6.586;2022-12-18T01:31:08;18.83;;;13.67;;
14316;SDS011;7242;50.858;6.586;2022-12-18T01:34:10;21.53;;;14.23;;
14316;SDS011;7242;50.858;6.586;2022-12-18T01:37:11;22.30;;;14.03;;
14316;SDS011;7242;50.858;6.586;2022-12-18T01:40:12;20.43;;;13.73;;
14316;SDS011;7242;50.858;6.586;2022-12-18T01:43:13;22.53;;;14.30;;
14316;SDS011;7242;50.858;6.586;2022-12-18T01:46:15;22.10;;;13.07;;
14316;SDS011;7242;50.858;6.586;2022-12-18T01:49:16;21.70;;;14.43;;
14316;SDS011;7242;50.858;6.586;2022-12-18T01:52:17;21.77;;;13.83;;
14316;SDS011;7242;50.858;6.586;2022-12-18T01:55:20;24.27;;;14.37;;
14316;SDS011;7242;50.858;6.586;2022-12-18T01:58:24;22.13;;;13.87;;
14316;SDS011;7242;50.858;6.586;2022-12-18T02:01:28;20.87;;;13.60;;
14316;SDS011;7242;50.858;6.586;2022-12-18T02:04:30;21.20;;;13.60;;
14316;SDS011;7242;50.858;6.586;2022-12-18T02:17:01;21.87;;;13.33;;
14316;SDS011;7242;50.858;6.586;2022-12-18T02:20:20;22.23;;;14.00;;
14316;SDS011;7242;50.858;6.586;2022-12-18T02:26:27;21.43;;;13.10;;
14316;SDS011;7242;50.858;6.586;2022-12-18T02:29:36;20.13;;;12.20;;
14316;SDS011;7242;50.858;6.586;2022-12-18T02:32:39;18.87;;;12.50;;
14316;SDS011;7242;50.858;6.586;2022-12-18T02:35:42;18.67;;;12.63;;
14316;SDS011;7242;50.858;6.586;2022-12-18T02:38:46;19.60;;;12.37;;
14316;SDS011;7242;50.858;6.586;2022-12-18T02:41:50;18.97;;;12.40;;
14316;SDS011;7242;50.858;6.586;2022-12-18T02:44:52;21.60;;;13.03;;
14316;SDS011;7242;50.858;6.586;2022-12-18T02:47:57;20.40;;;13.13;;
14316;SDS011;7242;50.858;6.586;2022-12-18T02:54:10;22.10;;;13.20;;
14316;SDS011;7242;50.858;6.586;2022-12-18T02:57:18;18.13;;;12.47;;
14316;SDS011;7242;50.858;6.586;2022-12-18T03:00:27;19.37;;;12.87;;
14316;SDS011;7242;50.858;6.586;2022-12-18T03:03:42;18.47;;;12.73;;
14316;SDS011;7242;50.858;6.586;2022-12-18T03:06:48;18.00;;;12.80;;
14316;SDS011;7242;50.858;6.586;2022-12-18T03:09:52;21.80;;;12.97;;
14316;SDS011;7242;50.858;6.586;2022-12-18T03:13:08;19.13;;;13.03;;
14316;SDS011;7242;50.858;6.586;2022-12-18T03:16:12;20.60;;;12.57;;
14316;SDS011;7242;50.858;6.586;2022-12-18T03:19:19;20.17;;;13.00;;
14316;SDS011;7242;50.858;6.586;2022-12-18T03:22:24;20.70;;;13.37;;
14316;SDS011;7242;50.858;6.586;2022-12-18T03:25:31;24.10;;;13.70;;
14316;SDS011;7242;50.858;6.586;2022-12-18T03:28:35;21.87;;;14.03;;
14316;SDS011;7242;50.858;6.586;2022-12-18T03:31:40;23.67;;;14.10;;
14316;SDS011;7242;50.858;6.586;2022-12-18T03:34:42;21.53;;;14.27;;
14316;SDS011;7242;50.858;6.586;2022-12-18T03:37:48;22.87;;;13.57;;
14316;SDS011;7242;50.858;6.586;2022-12-18T03:47:05;23.83;;;13.67;;
14316;SDS011;7242;50.858;6.586;2022-12-18T03:56:45;23.73;;;14.33;;
14316;SDS011;7242;50.858;6.586;2022-12-18T03:59:54;23.67;;;14.50;;
14316;SDS011;7242;50.858;6.586;2022-12-18T04:03:01;23.33;;;14.50;;
14316;SDS011;7242;50.858;6.586;2022-12-18T04:06:11;22.13;;;14.50;;
14316;SDS011;7242;50.858;6.586;2022-12-18T04:09:15;21.90;;;13.73;;
14316;SDS011;7242;50.858;6.586;2022-12-18T04:12:20;22.47;;;14.47;;
14316;SDS011;7242;50.858;6.586;2022-12-18T04:15:22;23.73;;;14.77;;
14316;SDS011;7242;50.858;6.586;2022-12-18T04:18:24;23.53;;;14.93;;
14316;SDS011;7242;50.858;6.586;2022-12-18T04:21:26;22.30;;;14.40;;
14316;SDS011;7242;50.858;6.586;2022-12-18T04:24:28;26.23;;;15.20;;
14316;SDS011;7242;50.858;6.586;2022-12-18T04:27:41;25.70;;;15.77;;
14316;SDS011;7242;50.858;6.586;2022-12-18T04:30:43;26.13;;;15.50;;
14316;SDS011;7242;50.858;6.586;2022-12-18T04:33:44;24.83;;;14.67;;
14316;SDS011;7242;50.858;6.586;2022-12-18T04:36:45;25.90;;;15.57;;
14316;SDS011;7242;50.858;6.586;2022-12-18T04:39:47;25.03;;;14.83;;
14316;SDS011;7242;50.858;6.586;2022-12-18T04:42:56;23.73;;;14.20;;
14316;SDS011;7242;50.858;6.586;2022-12-18T04:46:01;24.37;;;15.07;;
14316;SDS011;7242;50.858;6.586;2022-12-18T04:49:03;25.83;;;16.07;;
14316;SDS011;7242;50.858;6.586;2022-12-18T04:52:04;22.77;;;14.73;;
14316;SDS011;7242;50.858;6.586;2022-12-18T04:55:05;23.17;;;14.83;;
14316;SDS011;7242;50.858;6.586;2022-12-18T04:58:07;23.23;;;15.23;;
14316;SDS011;7242;50.858;6.586;2022-12-18T05:01:08;26.40;;;15.83;;
14316;SDS011;7242;50.858;6.586;2022-12-18T05:04:09;24.10;;;14.70;;
14316;SDS011;7242;50.858;6.586;2022-12-18T05:07:10;23.80;;;14.43;;
14316;SDS011;7242;50.858;6.586;2022-12-18T05:10:11;23.97;;;14.90;;
14316;SDS011;7242;50.858;6.586;2022-12-18T05:13:13;23.27;;;15.07;;
14316;SDS011;7242;50.858;6.586;2022-12-18T05:16:14;24.33;;;16.00;;
14316;SDS011;7242;50.858;6.586;2022-12-18T05:19:15;22.53;;;14.73;;
14316;SDS011;7242;50.858;6.586;2022-12-18T05:22:16;27.03;;;15.27;;
14316;SDS011;7242;50.858;6.586;2022-12-18T05:25:18;23.27;;;14.40;;
14316;SDS011;7242;50.858;6.586;2022-12-18T05:28:19;24.07;;;15.37;;
14316;SDS011;7242;50.858;6.586;2022-12-18T05:31:21;26.87;;;15.63;;
14316;SDS011;7242;50.858;6.586;2022-12-18T05:34:22;25.23;;;15.17;;
14316;SDS011;7242;50.858;6.586;2022-12-18T05:37:23;24.23;;;15.07;;
14316;SDS011;7242;50.858;6.586;2022-12-18T05:40:24;25.13;;;14.67;;
14316;SDS011;7242;50.858;6.586;2022-12-18T05:43:25;25.13;;;15.27;;
14316;SDS011;7242;50.858;6.586;2022-12-18T05:46:27;25.17;;;15.60;;
14316;SDS011;7242;50.858;6.586;2022-12-18T05:49:28;26.93;;;16.40;;
14316;SDS011;7242;50.858;6.586;2022-12-18T05:52:29;25.70;;;15.37;;
14316;SDS011;7242;50.858;6.586;2022-12-18T05:55:35;26.47;;;16.33;;
14316;SDS011;7242;50.858;6.586;2022-12-18T05:58:36;26.40;;;15.37;;
14316;SDS011;7242;50.858;6.586;2022-12-18T06:01:37;26.07;;;15.63;;
14316;SDS011;7242;50.858;6.586;2022-12-18T06:04:38;26.93;;;15.87;;
14316;SDS011;7242;50.858;6.586;2022-12-18T06:07:40;25.80;;;15.53;;
14316;SDS011;7242;50.858;6.586;2022-12-18T06:10:40;25.63;;;15.67;;
14316;SDS011;7242;50.858;6.586;2022-12-18T06:13:42;25.60;;;16.47;;
14316;SDS011;7242;50.858;6.586;2022-12-18T06:16:43;25.20;;;15.50;;
14316;SDS011;7242;50.858;6.586;2022-12-18T06:19:44;29.23;;;16.53;;
14316;SDS011;7242;50.858;6.586;2022-12-18T06:22:45;26.63;;;16.20;;
14316;SDS011;7242;50.858;6.586;2022-12-18T06:25:46;27.07;;;16.03;;
14316;SDS011;7242;50.858;6.586;2022-12-18T06:28:48;25.20;;;16.13;;
14316;SDS011;7242;50.858;6.586;2022-12-18T06:31:49;26.77;;;16.87;;
14316;SDS011;7242;50.858;6.586;2022-12-18T06:34:50;26.10;;;16.77;;
14316;SDS011;7242;50.858;6.586;2022-12-18T06:37:51;25.93;;;16.43;;
14316;SDS011;7242;50.858;6.586;2022-12-18T06:40:52;27.63;;;17.17;;
14316;SDS011;7242;50.858;6.586;2022-12-18T06:43:53;31.40;;;21.98;;
14316;SDS011;7242;50.858;6.586;2022-12-18T06:46:55;28.10;;;17.57;;
14316;SDS011;7242;50.858;6.586;2022-12-18T06:49:56;27.27;;;17.90;;
14316;SDS011;7242;50.858;6.586;2022-12-18T06:52:57;27.50;;;17.73;;
14316;SDS011;7242;50.858;6.586;2022-12-18T06:55:59;30.10;;;17.43;;
14316;SDS011;7242;50.858;6.586;2022-12-18T06:59:04;30.40;;;17.57;;
14316;SDS011;7242;50.858;6.586;2022-12-18T07:02:05;28.97;;;17.53;;
14316;SDS011;7242;50.858;6.586;2022-12-18T07:05:07;30.57;;;18.57;;
14316;SDS011;7242;50.858;6.586;2022-12-18T07:08:08;28.80;;;18.27;;
14316;SDS011;7242;50.858;6.586;2022-12-18T07:11:10;29.20;;;17.50;;
14316;SDS011;7242;50.858;6.586;2022-12-18T07:14:11;29.23;;;17.47;;
14316;SDS011;7242;50.858;6.586;2022-12-18T07:17:12;26.47;;;16.80;;
14316;SDS011;7242;50.858;6.586;2022-12-18T07:20:13;29.70;;;18.33;;
14316;SDS011;7242;50.858;6.586;2022-12-18T07:23:15;29.33;;;18.30;;
14316;SDS011;7242;50.858;6.586;2022-12-18T07:26:17;31.10;;;18.20;;
14316;SDS011;7242;50.858;6.586;2022-12-18T07:29:18;31.77;;;19.13;;
14316;SDS011;7242;50.858;6.586;2022-12-18T07:32:20;32.37;;;19.80;;
14316;SDS011;7242;50.858;6.586;2022-12-18T07:35:21;30.40;;;19.03;;
14316;SDS011;7242;50.858;6.586;2022-12-18T07:38:22;29.17;;;18.27;;
14316;SDS011;7242;50.858;6.586;2022-12-18T07:41:23;28.13;;;18.10;;
14316;SDS011;7242;50.858;6.586;2022-12-18T07:44:25;27.93;;;18.47;;
14316;SDS011;7242;50.858;6.586;2022-12-18T07:47:26;30.83;;;18.13;;
14316;SDS011;7242;50.858;6.586;2022-12-18T07:50:27;28.47;;;17.70;;
14316;SDS011;7242;50.858;6.586;2022-12-18T07:53:28;28.43;;;18.10;;
14316;SDS011;7242;50.858;6.586;2022-12-18T07:56:30;28.97;;;18.37;;
14316;SDS011;7242;50.858;6.586;2022-12-18T07:59:31;31.13;;;17.97;;
14316;SDS011;7242;50.858;6.586;2022-12-18T08:02:32;27.37;;;17.93;;
14316;SDS011;7242;50.858;6.586;2022-12-18T08:05:34;28.07;;;18.17;;
14316;SDS011;7242;50.858;6.586;2022-12-18T08:08:35;28.60;;;18.00;;
14316;SDS011;7242;50.858;6.586;2022-12-18T08:11:37;28.50;;;17.63;;
14316;SDS011;7242;50.858;6.586;2022-12-18T08:14:38;27.07;;;17.60;;
14316;SDS011;7242;50.858;6.586;2022-12-18T08:17:40;26.80;;;17.53;;
14316;SDS011;7242;50.858;6.586;2022-12-18T08:20:43;28.13;;;17.70;;
14316;SDS011;7242;50.858;6.586;2022-12-18T08:23:44;27.40;;;18.10;;
14316;SDS011;7242;50.858;6.586;2022-12-18T08:26:47;29.57;;;18.60;;
14316;SDS011;7242;50.858;6.586;2022-12-18T08:29:48;29.10;;;17.87;;
14316;SDS011;7242;50.858;6.586;2022-12-18T08:32:51;28.97;;;17.57;;
14316;SDS011;7242;50.858;6.586;2022-12-18T08:35:53;28.80;;;18.77;;
14316;SDS011;7242;50.858;6.586;2022-12-18T08:38:54;26.93;;;17.03;;
14316;SDS011;7242;50.858;6.586;2022-12-18T08:41:56;28.50;;;16.97;;
14316;SDS011;7242;50.858;6.586;2022-12-18T08:45:16;27.30;;;17.90;;
14316;SDS011;7242;50.858;6.586;2022-12-18T08:48:17;27.57;;;16.57;;
14316;SDS011;7242;50.858;6.586;2022-12-18T08:51:19;27.23;;;17.10;;
14316;SDS011;7242;50.858;6.586;2022-12-18T08:54:20;29.83;;;20.58;;
14316;SDS011;7242;50.858;6.586;2022-12-18T08:57:21;25.97;;;17.67;;
14316;SDS011;7242;50.858;6.586;2022-12-18T09:00:22;28.03;;;18.03;;
14316;SDS011;7242;50.858;6.586;2022-12-18T09:03:24;23.00;;;16.43;;
14316;SDS011;7242;50.858;6.586;2022-12-18T09:06:25;25.40;;;17.37;;
14316;SDS011;7242;50.858;6.586;2022-12-18T09:09:26;26.97;;;17.17;;
14316;SDS011;7242;50.858;6.586;2022-12-18T09:12:27;24.60;;;16.60;;
14316;SDS011;7242;50.858;6.586;2022-12-18T09:15:28;25.83;;;17.03;;
14316;SDS011;7242;50.858;6.586;2022-12-18T09:18:30;25.63;;;16.00;;
14316;SDS011;7242;50.858;6.586;2022-12-18T09:21:32;25.53;;;16.87;;
14316;SDS011;7242;50.858;6.586;2022-12-18T09:24:33;25.27;;;16.97;;
14316;SDS011;7242;50.858;6.586;2022-12-18T09:27:35;25.37;;;16.67;;
14316;SDS011;7242;50.858;6.586;2022-12-18T09:30:39;23.83;;;16.27;;
14316;SDS011;7242;50.858;6.586;2022-12-18T09:33:43;24.40;;;16.93;;
14316;SDS011;7242;50.858;6.586;2022-12-18T09:36:45;26.07;;;16.70;;
14316;SDS011;7242;50.858;6.586;2022-12-18T09:39:46;25.67;;;17.63;;
14316;SDS011;7242;50.858;6.586;2022-12-18T09:42:50;23.60;;;16.67;;
14316;SDS011;7242;50.858;6.586;2022-12-18T09:45:55;25.67;;;17.20;;
14316;SDS011;7242;50.858;6.586;2022-12-18T09:49:00;23.67;;;16.43;;
14316;SDS011;7242;50.858;6.586;2022-12-18T09:52:45;24.03;;;16.13;;
14316;SDS011;7242;50.858;6.586;2022-12-18T09:55:31;23.37;;;15.93;;
14316;SDS011;7242;50.858;6.586;2022-12-18T09:58:43;23.63;;;15.67;;
14316;SDS011;7242;50.858;6.586;2022-12-18T10:01:45;27.17;;;16.87;;
14316;SDS011;7242;50.858;6.586;2022-12-18T10:04:49;25.73;;;16.37;;
14316;SDS011;7242;50.858;6.586;2022-12-18T10:08:02;22.07;;;15.37;;
14316;SDS011;7242;50.858;6.586;2022-12-18T10:17:59;21.97;;;15.43;;
14316;SDS011;7242;50.858;6.586;2022-12-18T10:27:56;24.17;;;15.50;;
14316;SDS011;7242;50.858;6.586;2022-12-18T10:30:58;20.63;;;15.07;;
14316;SDS011;7242;50.858;6.586;2022-12-18T10:33:59;19.67;;;14.27;;
14316;SDS011;7242;50.858;6.586;2022-12-18T10:37:00;22.03;;;14.83;;
14316;SDS011;7242;50.858;6.586;2022-12-18T10:40:08;20.60;;;14.20;;
14316;SDS011;7242;50.858;6.586;2022-12-18T10:43:13;20.03;;;14.67;;
14316;SDS011;7242;50.858;6.586;2022-12-18T10:46:16;22.67;;;15.03;;
14316;SDS011;7242;50.858;6.586;2022-12-18T10:49:27;22.93;;;14.27;;
14316;SDS011;7242;50.858;6.586;2022-12-18T10:52:28;20.20;;;13.73;;
14316;SDS011;7242;50.858;6.586;2022-12-18T10:55:48;23.27;;;14.23;;
14316;SDS011;7242;50.858;6.586;2022-12-18T11:02:27;19.70;;;14.53;;
14316;SDS011;7242;50.858;6.586;2022-12-18T11:05:36;20.87;;;15.17;;
14316;SDS011;7242;50.858;6.586;2022-12-18T11:08:37;21.50;;;15.27;;
14316;SDS011;7242;50.858;6.586;2022-12-18T11:11:39;22.37;;;15.43;;
14316;SDS011;7242;50.858;6.586;2022-12-18T11:14:45;23.10;;;15.47;;
14316;SDS011;7242;50.858;6.586;2022-12-18T11:17:48;21.93;;;15.40;;
14316;SDS011;7242;50.858;6.586;2022-12-18T11:20:51;20.70;;;14.77;;
14316;SDS011;7242;50.858;6.586;2022-12-18T11:23:53;22.20;;;15.50;;
14316;SDS011;7242;50.858;6.586;2022-12-18T11:26:55;22.20;;;15.10;;
14316;SDS011;7242;50.858;6.586;2022-12-18T11:33:22;21.17;;;15.43;;
14316;SDS011;7242;50.858;6.586;2022-12-18T11:36:24;21.03;;;14.93;;
14316;SDS011;7242;50.858;6.586;2022-12-18T11:39:40;23.30;;;15.90;;
14316;SDS011;7242;50.858;6.586;2022-12-18T11:42:48;21.60;;;15.33;;
14316;SDS011;7242;50.858;6.586;2022-12-18T11:46:14;21.60;;;15.00;;
14316;SDS011;7242;50.858;6.586;2022-12-18T12:11:23;21.50;;;15.03;;
14316;SDS011;7242;50.858;6.586;2022-12-18T12:14:31;20.13;;;14.77;;
14316;SDS011;7242;50.858;6.586;2022-12-18T12:18:03;21.17;;;14.73;;
14316;SDS011;7242;50.858;6.586;2022-12-18T12:27:59;20.57;;;15.20;;
14316;SDS011;7242;50.858;6.586;2022-12-18T12:40:43;22.57;;;15.10;;
14316;SDS011;7242;50.858;6.586;2022-12-18T12:43:45;20.57;;;15.13;;
14316;SDS011;7242;50.858;6.586;2022-12-18T12:46:49;21.63;;;15.00;;
14316;SDS011;7242;50.858;6.586;2022-12-18T12:49:53;19.70;;;15.17;;
14316;SDS011;7242;50.858;6.586;2022-12-18T12:52:55;21.80;;;15.27;;
14316;SDS011;7242;50.858;6.586;2022-12-18T12:55:57;20.80;;;14.63;;
14316;SDS011;7242;50.858;6.586;2022-12-18T12:59:04;21.37;;;15.40;;
14316;SDS011;7242;50.858;6.586;2022-12-18T13:08:56;21.10;;;14.67;;
14316;SDS011;7242;50.858;6.586;2022-12-18T13:12:03;24.77;;;16.30;;
14316;SDS011;7242;50.858;6.586;2022-12-18T13:18:25;21.20;;;15.00;;
14316;SDS011;7242;50.858;6.586;2022-12-18T13:21:29;20.83;;;15.20;;
14316;SDS011;7242;50.858;6.586;2022-12-18T13:24:32;22.30;;;15.50;;
14316;SDS011;7242;50.858;6.586;2022-12-18T13:27:57;22.03;;;15.80;;
14316;SDS011;7242;50.858;6.586;2022-12-18T13:30:56;22.77;;;15.30;;
14316;SDS011;7242;50.858;6.586;2022-12-18T13:37:39;24.00;;;16.33;;
14316;SDS011;7242;50.858;6.586;2022-12-18T13:43:46;22.10;;;16.10;;
14316;SDS011;7242;50.858;6.586;2022-12-18T13:46:49;24.33;;;16.60;;
14316;SDS011;7242;50.858;6.586;2022-12-18T13:49:51;23.90;;;17.00;;
14316;SDS011;7242;50.858;6.586;2022-12-18T13:52:52;25.13;;;16.53;;
14316;SDS011;7242;50.858;6.586;2022-12-18T13:55:53;22.63;;;16.00;;
14316;SDS011;7242;50.858;6.586;2022-12-18T14:02:16;26.07;;;17.63;;
14316;SDS011;7242;50.858;6.586;2022-12-18T14:05:21;27.70;;;18.93;;
14316;SDS011;7242;50.858;6.586;2022-12-18T14:08:32;25.97;;;17.77;;
14316;SDS011;7242;50.858;6.586;2022-12-18T14:11:34;27.40;;;18.63;;
14316;SDS011;7242;50.858;6.586;2022-12-18T14:14:35;26.00;;;17.93;;
14316;SDS011;7242;50.858;6.586;2022-12-18T14:17:37;25.77;;;17.40;;
14316;SDS011;7242;50.858;6.586;2022-12-18T14:20:39;24.37;;;17.27;;
14316;SDS011;7242;50.858;6.586;2022-12-18T14:23:42;26.27;;;18.73;;
14316;SDS011;7242;50.858;6.586;2022-12-18T14:26:44;28.73;;;19.50;;
14316;SDS011;7242;50.858;6.586;2022-12-18T14:29:45;30.03;;;18.33;;
14316;SDS011;7242;50.858;6.586;2022-12-18T14:32:59;28.47;;;17.90;;
14316;SDS011;7242;50.858;6.586;2022-12-18T14:36:01;27.33;;;18.27;;
14316;SDS011;7242;50.858;6.586;2022-12-18T14:39:02;27.43;;;17.67;;
14316;SDS011;7242;50.858;6.586;2022-12-18T14:42:03;25.70;;;17.27;;
14316;SDS011;7242;50.858;6.586;2022-12-18T14:51:32;26.40;;;17.60;;
14316;SDS011;7242;50.858;6.586;2022-12-18T14:54:34;30.37;;;19.50;;
14316;SDS011;7242;50.858;6.586;2022-12-18T14:57:37;27.00;;;18.40;;
14316;SDS011;7242;50.858;6.586;2022-12-18T15:00:42;27.07;;;18.77;;
14316;SDS011;7242;50.858;6.586;2022-12-18T15:03:43;30.97;;;18.97;;
14316;SDS011;7242;50.858;6.586;2022-12-18T15:06:45;26.43;;;18.37;;
14316;SDS011;7242;50.858;6.586;2022-12-18T15:10:07;29.77;;;20.37;;
14316;SDS011;7242;50.858;6.586;2022-12-18T15:13:20;29.80;;;19.83;;
14316;SDS011;7242;50.858;6.586;2022-12-18T15:16:22;31.00;;;20.07;;
14316;SDS011;7242;50.858;6.586;2022-12-18T15:19:28;29.30;;;19.83;;
14316;SDS011;7242;50.858;6.586;2022-12-18T15:22:36;29.83;;;19.80;;
14316;SDS011;7242;50.858;6.586;2022-12-18T15:25:37;29.83;;;20.43;;
14316;SDS011;7242;50.858;6.586;2022-12-18T15:32:00;31.37;;;19.83;;
14316;SDS011;7242;50.858;6.586;2022-12-18T15:38:09;30.53;;;19.80;;
14316;SDS011;7242;50.858;6.586;2022-12-18T15:41:12;29.93;;;20.57;;
14316;SDS011;7242;50.858;6.586;2022-12-18T15:44:22;29.77;;;19.97;;
14316;SDS011;7242;50.858;6.586;2022-12-18T15:47:23;32.63;;;20.37;;
14316;SDS011;7242;50.858;6.586;2022-12-18T15:50:24;30.97;;;19.73;;
14316;SDS011;7242;50.858;6.586;2022-12-18T15:53:28;31.67;;;21.00;;
14316;SDS011;7242;50.858;6.586;2022-12-18T15:56:30;30.57;;;20.17;;
14316;SDS011;7242;50.858;6.586;2022-12-18T15:59:50;31.60;;;19.33;;
14316;SDS011;7242;50.858;6.586;2022-12-18T16:02:52;31.77;;;19.67;;
14316;SDS011;7242;50.858;6.586;2022-12-18T16:05:54;32.67;;;21.23;;
14316;SDS011;7242;50.858;6.586;2022-12-18T16:08:55;32.33;;;20.73;;
14316;SDS011;7242;50.858;6.586;2022-12-18T16:11:56;29.67;;;20.37;;
14316;SDS011;7242;50.858;6.586;2022-12-18T16:15:00;32.03;;;20.53;;
14316;SDS011;7242;50.858;6.586;2022-12-18T16:18:01;32.00;;;20.93;;
14316;SDS011;7242;50.858;6.586;2022-12-18T16:21:03;248.73;;;30.03;;
14316;SDS011;7242;50.858;6.586;2022-12-18T16:24:04;38.47;;;22.70;;
14316;SDS011;7242;50.858;6.586;2022-12-18T16:27:05;32.63;;;21.53;;
14316;SDS011;7242;50.858;6.586;2022-12-18T16:30:08;34.10;;;22.23;;
14316;SDS011;7242;50.858;6.586;2022-12-18T16:33:12;34.00;;;22.07;;
14316;SDS011;7242;50.858;6.586;2022-12-18T16:36:13;37.60;;;22.93;;
14316;SDS011;7242;50.858;6.586;2022-12-18T16:39:15;35.37;;;21.37;;
14316;SDS011;7242;50.858;6.586;2022-12-18T16:42:17;34.87;;;22.70;;
14316;SDS011;7242;50.858;6.586;2022-12-18T16:45:19;34.67;;;21.80;;
14316;SDS011;7242;50.858;6.586;2022-12-18T16:48:20;33.60;;;21.03;;
14316;SDS011;7242;50.858;6.586;2022-12-18T16:51:21;35.97;;;22.10;;
14316;SDS011;7242;50.858;6.586;2022-12-18T16:54:23;37.60;;;22.13;;
14316;SDS011;7242;50.858;6.586;2022-12-18T16:57:25;32.03;;;20.17;;
14316;SDS011;7242;50.858;6.586;2022-12-18T17:00:27;36.67;;;21.83;;
14316;SDS011;7242;50.858;6.586;2022-12-18T17:03:28;33.50;;;22.30;;
14316;SDS011;7242;50.858;6.586;2022-12-18T17:06:30;33.30;;;21.97;;
14316;SDS011;7242;50.858;6.586;2022-12-18T17:09:32;33.63;;;21.67;;
14316;SDS011;7242;50.858;6.586;2022-12-18T17:12:33;32.53;;;22.40;;
14316;SDS011;7242;50.858;6.586;2022-12-18T17:15:36;35.47;;;22.67;;
14316;SDS011;7242;50.858;6.586;2022-12-18T17:18:37;32.47;;;21.70;;
14316;SDS011;7242;50.858;6.586;2022-12-18T17:21:38;34.33;;;22.13;;
14316;SDS011;7242;50.858;6.586;2022-12-18T17:24:40;37.50;;;23.20;;
14316;SDS011;7242;50.858;6.586;2022-12-18T17:27:41;33.23;;;21.63;;
14316;SDS011;7242;50.858;6.586;2022-12-18T17:30:42;35.93;;;23.40;;
14316;SDS011;7242;50.858;6.586;2022-12-18T17:33:43;33.37;;;21.63;;
14316;SDS011;7242;50.858;6.586;2022-12-18T17:36:45;33.60;;;22.40;;
14316;SDS011;7242;50.858;6.586;2022-12-18T17:39:46;33.57;;;22.87;;
14316;SDS011;7242;50.858;6.586;2022-12-18T17:42:47;36.53;;;23.53;;
14316;SDS011;7242;50.858;6.586;2022-12-18T17:45:50;34.27;;;23.17;;
14316;SDS011;7242;50.858;6.586;2022-12-18T17:48:52;36.80;;;23.47;;
14316;SDS011;7242;50.858;6.586;2022-12-18T17:51:54;34.60;;;22.87;;
14316;SDS011;7242;50.858;6.586;2022-12-18T17:54:56;37.40;;;23.60;;
14316;SDS011;7242;50.858;6.586;2022-12-18T17:57:57;36.27;;;23.37;;
14316;SDS011;7242;50.858;6.586;2022-12-18T18:00:58;33.57;;;23.13;;
14316;SDS011;7242;50.858;6.586;2022-12-18T18:03:59;33.00;;;22.43;;
14316;SDS011;7242;50.858;6.586;2022-12-18T18:07:01;37.80;;;23.70;;
14316;SDS011;7242;50.858;6.586;2022-12-18T18:10:02;33.97;;;23.23;;
14316;SDS011;7242;50.858;6.586;2022-12-18T18:13:14;37.23;;;23.87;;
14316;SDS011;7242;50.858;6.586;2022-12-18T18:16:36;36.57;;;23.20;;
14316;SDS011;7242;50.858;6.586;2022-12-18T18:19:38;37.37;;;24.00;;
14316;SDS011;7242;50.858;6.586;2022-12-18T18:22:39;39.10;;;23.67;;
14316;SDS011;7242;50.858;6.586;2022-12-18T18:25:40;38.80;;;24.47;;
14316;SDS011;7242;50.858;6.586;2022-12-18T18:28:41;35.37;;;24.03;;
14316;SDS011;7242;50.858;6.586;2022-12-18T18:31:43;39.70;;;25.07;;
14316;SDS011;7242;50.858;6.586;2022-12-18T18:34:44;38.80;;;25.33;;
14316;SDS011;7242;50.858;6.586;2022-12-18T18:37:46;36.90;;;23.50;;
14316;SDS011;7242;50.858;6.586;2022-12-18T18:40:48;39.00;;;23.77;;
14316;SDS011;7242;50.858;6.586;2022-12-18T18:43:53;39.07;;;24.37;;
14316;SDS011;7242;50.858;6.586;2022-12-18T18:46:56;39.77;;;24.03;;
14316;SDS011;7242;50.858;6.586;2022-12-18T18:49:58;37.13;;;23.50;;
14316;SDS011;7242;50.858;6.586;2022-12-18T18:52:59;38.53;;;24.70;;
14316;SDS011;7242;50.858;6.586;2022-12-18T18:56:00;35.77;;;24.33;;
14316;SDS011;7242;50.858;6.586;2022-12-18T18:59:01;37.07;;;24.77;;
14316;SDS011;7242;50.858;6.586;2022-12-18T19:02:03;36.33;;;24.57;;
14316;SDS011;7242;50.858;6.586;2022-12-18T19:05:04;39.17;;;26.13;;
14316;SDS011;7242;50.858;6.586;2022-12-18T19:08:05;33.27;;;22.13;;
14316;SDS011;7242;50.858;6.586;2022-12-18T19:11:07;35.60;;;23.83;;
14316;SDS011;7242;50.858;6.586;2022-12-18T19:14:27;36.53;;;23.47;;
14316;SDS011;7242;50.858;6.586;2022-12-18T19:17:28;37.30;;;21.87;;
14316;SDS011;7242;50.858;6.586;2022-12-18T19:20:29;36.60;;;22.90;;
14316;SDS011;7242;50.858;6.586;2022-12-18T19:23:31;34.03;;;23.33;;
14316;SDS011;7242;50.858;6.586;2022-12-18T19:26:32;35.57;;;23.23;;
14316;SDS011;7242;50.858;6.586;2022-12-18T19:29:33;35.60;;;24.53;;
14316;SDS011;7242;50.858;6.586;2022-12-18T19:32:35;34.80;;;23.23;;
14316;SDS011;7242;50.858;6.586;2022-12-18T19:35:36;32.77;;;22.73;;
14316;SDS011;7242;50.858;6.586;2022-12-18T19:38:37;35.33;;;23.27;;
14316;SDS011;7242;50.858;6.586;2022-12-18T19:41:39;34.00;;;22.90;;
14316;SDS011;7242;50.858;6.586;2022-12-18T19:44:41;35.57;;;24.00;;
14316;SDS011;7242;50.858;6.586;2022-12-18T19:47:42;37.03;;;23.87;;
14316;SDS011;7242;50.858;6.586;2022-12-18T19:50:43;35.90;;;24.43;;
14316;SDS011;7242;50.858;6.586;2022-12-18T19:53:45;39.13;;;23.63;;
14316;SDS011;7242;50.858;6.586;2022-12-18T19:56:46;34.37;;;22.90;;
14316;SDS011;7242;50.858;6.586;2022-12-18T19:59:47;37.10;;;24.00;;
14316;SDS011;7242;50.858;6.586;2022-12-18T20:02:48;37.30;;;24.83;;
14316;SDS011;7242;50.858;6.586;2022-12-18T20:05:49;35.90;;;23.30;;
14316;SDS011;7242;50.858;6.586;2022-12-18T20:08:51;36.27;;;23.57;;